Terminal Aerodrome Forecast
Issued by NWS Sterling, VA

Current Version | Previous Version | Graphics & Text | Print | Product List | Glossary On
Versions: 1 2 3 4 5 6 7 8 9 10 11 12 13 14 15 16 17 18 19 20 21 22 23
860
FTUS41 KLWX 091120
TAFIAD
TAF
KIAD 091120Z 0912/1018 00000KT 5SM -SN OVC045
     FM091300 03004KT 2SM -SN OVC008
     FM091800 01005KT 3SM -SN OVC015
     FM092100 33004KT 5SM -SN OVC030
     FM100000 VRB03KT P6SM BKN060
     FM100500 28010KT P6SM SCT080=

USA.gov is the U.S. government's official web portal to all federal, state and local government web resources and services.